Time;durP1;ratioP1;P1;durP2;ratioP2;P2;SDS_P1;SDS_P2;PMS_P1;PMS_P2;Temp;Humidity;BMP_temperature;BMP_pressure;BME280_temperature;BME280_humidity;BME280_pressure;Samples;Min_cycle;Max_cycle;Signal;HPM_P1;HPM_P2
2022/05/31 00:00:26;;;;;;;16.55;12.38;;;;;;;;;;5094509;28;20359;-67
2022/05/31 00:02:52;;;;;;;23.05;13.18;;;;;;;;;;5088109;28;20101;-68
2022/05/31 00:05:18;;;;;;;17.95;12.32;;;;;;;;;;5089311;28;20024;-67
2022/05/31 00:07:44;;;;;;;19.98;12.50;;;;;;;;;;5087742;28;20035;-67
2022/05/31 00:10:11;;;;;;;20.20;12.27;;;;;;;;;;5090290;28;20108;-67
2022/05/31 00:12:38;;;;;;;18.00;12.30;;;;;;;;;;5086685;28;20040;-67
2022/05/31 00:15:04;;;;;;;18.85;12.30;;;;;;;;;;5089665;28;20047;-67
2022/05/31 00:17:30;;;;;;;19.42;13.43;;;;;;;;;;5088046;28;20137;-68
2022/05/31 00:19:57;;;;;;;21.65;12.88;;;;;;;;;;5090028;28;20028;-68
2022/05/31 00:22:24;;;;;;;17.50;13.23;;;;;;;;;;5089651;28;20068;-68
2022/05/31 00:24:50;;;;;;;16.60;13.15;;;;;;;;;;5089190;28;20076;-67
2022/05/31 00:27:19;;;;;;;21.20;13.68;;;;;;;;;;5086896;28;20028;-67
2022/05/31 00:29:47;;;;;;;18.08;13.80;;;;;;;;;;5085883;28;20035;-67
2022/05/31 00:32:14;;;;;;;18.05;13.32;;;;;;;;;;5088919;28;20081;-67
2022/05/31 00:34:43;;;;;;;20.30;14.10;;;;;;;;;;5087384;28;20562;-67
2022/05/31 00:37:09;;;;;;;20.60;13.82;;;;;;;;;;5087433;28;20032;-67
2022/05/31 00:39:36;;;;;;;21.10;15.10;;;;;;;;;;5087521;28;20138;-67
2022/05/31 00:42:07;;;;;;;22.23;15.77;;;;;;;;;;5089470;28;20065;-68
2022/05/31 00:44:33;;;;;;;25.35;15.98;;;;;;;;;;5095537;28;20028;-67
2022/05/31 00:47:01;;;;;;;26.38;16.52;;;;;;;;;;5088655;28;20024;-67
2022/05/31 00:49:36;;;;;;;24.17;16.20;;;;;;;;;;5086523;28;20038;-67
2022/05/31 00:52:07;;;;;;;22.98;15.77;;;;;;;;;;5087507;28;20370;-67
2022/05/31 00:54:36;;;;;;;20.70;15.18;;;;;;;;;;5085897;28;20531;-67
2022/05/31 00:57:02;;;;;;;24.70;17.08;;;;;;;;;;5087701;28;20032;-68
2022/05/31 00:59:32;;;;;;;27.27;17.08;;;;;;;;;;5085453;28;20032;-68
2022/05/31 01:01:58;;;;;;;25.75;16.05;;;;;;;;;;5082847;28;20027;-68
2022/05/31 01:04:37;;;;;;;23.27;16.67;;;;;;;;;;5084171;28;20512;-68
2022/05/31 01:07:03;;;;;;;25.58;17.10;;;;;;;;;;5090743;28;20150;-67
2022/05/31 01:09:30;;;;;;;26.30;16.95;;;;;;;;;;5087294;28;20043;-67
2022/05/31 01:11:57;;;;;;;25.50;18.30;;;;;;;;;;5088265;28;20501;-67
2022/05/31 01:14:23;;;;;;;22.45;16.65;;;;;;;;;;5094026;28;20032;-67
2022/05/31 01:16:53;;;;;;;26.95;17.35;;;;;;;;;;5088077;28;20485;-67
2022/05/31 01:19:55;;;;;;;27.83;18.08;;;;;;;;;;5085000;28;20031;-68
2022/05/31 01:22:05;;;;;;;24.80;17.83;;;;;;;;;;5085672;28;20447;-67
2022/05/31 01:24:35;;;;;;;27.30;18.40;;;;;;;;;;5087333;28;20029;-66
2022/05/31 01:27:05;;;;;;;26.77;17.90;;;;;;;;;;5087824;28;20415;-67
2022/05/31 01:29:34;;;;;;;27.05;17.70;;;;;;;;;;5088655;28;20024;-66
2022/05/31 01:32:02;;;;;;;29.40;17.65;;;;;;;;;;5086850;28;20055;-66
2022/05/31 01:34:28;;;;;;;28.15;18.95;;;;;;;;;;5085669;28;20107;-68
2022/05/31 01:36:55;;;;;;;26.48;18.38;;;;;;;;;;5086808;28;20533;-66
2022/05/31 01:39:24;;;;;;;24.60;17.90;;;;;;;;;;5084121;28;20048;-67
2022/05/31 01:41:53;;;;;;;25.90;18.52;;;;;;;;;;5089783;28;20024;-67
2022/05/31 01:44:21;;;;;;;28.33;18.77;;;;;;;;;;5084472;28;20028;-66
2022/05/31 01:46:48;;;;;;;29.25;19.30;;;;;;;;;;5089185;28;20032;-66
2022/05/31 01:49:15;;;;;;;28.08;19.63;;;;;;;;;;5083642;28;20350;-67
2022/05/31 01:51:42;;;;;;;27.83;19.20;;;;;;;;;;5086862;28;20500;-68
2022/05/31 01:54:09;;;;;;;27.35;19.05;;;;;;;;;;5096651;28;20043;-67
2022/05/31 01:56:36;;;;;;;28.98;18.92;;;;;;;;;;5089313;28;20031;-66
2022/05/31 01:59:03;;;;;;;37.13;20.77;;;;;;;;;;5086734;28;20112;-68
2022/05/31 02:01:31;;;;;;;27.65;20.08;;;;;;;;;;5086344;28;20024;-67
2022/05/31 02:03:57;;;;;;;35.08;21.17;;;;;;;;;;5084566;28;20024;-67
2022/05/31 02:06:29;;;;;;;30.30;19.98;;;;;;;;;;5087936;28;20084;-67
2022/05/31 02:08:55;;;;;;;28.73;20.27;;;;;;;;;;5085047;28;20031;-69
2022/05/31 02:11:21;;;;;;;28.75;20.42;;;;;;;;;;5068957;28;20119;-68
2022/05/31 02:13:48;;;;;;;27.27;19.77;;;;;;;;;;5081135;28;20147;-67
2022/05/31 02:16:14;;;;;;;26.73;19.42;;;;;;;;;;5086569;28;20031;-68
2022/05/31 02:21:24;;;;;;;30.27;19.60;;;;;;;;;;5070783;28;20067;-67
2022/05/31 02:23:50;;;;;;;27.75;19.55;;;;;;;;;;5086999;28;20139;-67
2022/05/31 02:26:16;;;;;;;26.30;19.23;;;;;;;;;;5092044;28;20024;-67
2022/05/31 02:28:42;;;;;;;26.23;19.52;;;;;;;;;;5089391;28;20050;-67
2022/05/31 02:31:08;;;;;;;30.60;18.52;;;;;;;;;;5090192;28;20077;-67
2022/05/31 02:33:34;;;;;;;32.42;18.85;;;;;;;;;;5089337;28;20109;-67
2022/05/31 02:36:00;;;;;;;29.13;19.17;;;;;;;;;;5097163;28;20100;-68
2022/05/31 02:38:26;;;;;;;25.10;18.67;;;;;;;;;;5099171;28;20481;-67
2022/05/31 02:40:52;;;;;;;22.42;17.90;;;;;;;;;;5088894;28;20031;-67
2022/05/31 02:43:18;;;;;;;26.35;17.48;;;;;;;;;;5086127;28;20324;-67
2022/05/31 02:45:45;;;;;;;24.30;17.67;;;;;;;;;;5092891;28;20043;-67
2022/05/31 02:48:11;;;;;;;27.83;17.65;;;;;;;;;;5088988;28;20020;-69
2022/05/31 02:50:40;;;;;;;26.45;17.58;;;;;;;;;;5090926;28;20040;-67
2022/05/31 02:53:06;;;;;;;21.13;16.85;;;;;;;;;;5091903;28;20055;-66
2022/05/31 02:55:32;;;;;;;18.45;15.32;;;;;;;;;;5090751;28;20043;-68
2022/05/31 02:57:58;;;;;;;25.30;16.35;;;;;;;;;;5086787;28;20133;-67
2022/05/31 03:00:24;;;;;;;25.08;15.60;;;;;;;;;;5086500;28;20036;-67
2022/05/31 03:02:50;;;;;;;23.25;14.77;;;;;;;;;;5088028;28;20054;-67
2022/05/31 03:05:16;;;;;;;20.00;15.80;;;;;;;;;;5089519;28;20046;-67
2022/05/31 03:07:42;;;;;;;25.20;14.50;;;;;;;;;;5086835;28;20489;-66
2022/05/31 03:10:08;;;;;;;19.58;14.35;;;;;;;;;;5074740;28;20133;-67
2022/05/31 03:12:35;;;;;;;21.73;14.88;;;;;;;;;;5088750;28;20124;-66
2022/05/31 03:15:12;;;;;;;23.05;14.70;;;;;;;;;;5088562;28;20036;-66
2022/05/31 03:17:44;;;;;;;19.05;13.15;;;;;;;;;;5087964;28;20027;-68
2022/05/31 03:20:16;;;;;;;18.88;13.18;;;;;;;;;;5086386;28;20032;-66
2022/05/31 03:22:47;;;;;;;17.55;13.45;;;;;;;;;;5087805;28;20044;-67
2022/05/31 03:25:18;;;;;;;17.38;13.15;;;;;;;;;;5090762;28;20024;-67
2022/05/31 03:27:45;;;;;;;20.95;12.45;;;;;;;;;;5085982;28;20028;-67
2022/05/31 03:30:11;;;;;;;17.92;12.75;;;;;;;;;;5103050;28;21255;-67
2022/05/31 03:32:37;;;;;;;17.25;12.25;;;;;;;;;;5089851;28;20025;-68
2022/05/31 03:35:04;;;;;;;18.55;12.00;;;;;;;;;;5089457;28;20097;-67
2022/05/31 03:37:30;;;;;;;15.85;11.35;;;;;;;;;;5086915;28;20123;-68
2022/05/31 03:39:56;;;;;;;15.13;11.32;;;;;;;;;;5088536;28;20032;-68
2022/05/31 03:42:22;;;;;;;17.77;12.15;;;;;;;;;;5086437;28;20066;-66
2022/05/31 03:44:48;;;;;;;14.05;11.50;;;;;;;;;;5090532;28;20024;-66
2022/05/31 03:47:14;;;;;;;15.63;11.40;;;;;;;;;;5090411;28;20036;-67
2022/05/31 03:49:40;;;;;;;15.50;10.73;;;;;;;;;;5088517;28;20085;-67
2022/05/31 03:52:07;;;;;;;15.93;10.70;;;;;;;;;;5078622;28;20040;-67
2022/05/31 03:54:35;;;;;;;12.73;10.45;;;;;;;;;;5089658;28;20031;-67
2022/05/31 03:57:01;;;;;;;17.33;12.30;;;;;;;;;;5089978;28;20586;-67
2022/05/31 03:59:29;;;;;;;14.68;10.60;;;;;;;;;;5085385;28;20434;-66
2022/05/31 04:01:55;;;;;;;12.43;10.02;;;;;;;;;;5088194;28;20036;-67
2022/05/31 04:04:21;;;;;;;16.95;10.55;;;;;;;;;;5089301;28;20497;-67
2022/05/31 04:06:47;;;;;;;17.02;11.00;;;;;;;;;;5082272;28;20044;-68
2022/05/31 04:09:13;;;;;;;14.98;9.88;;;;;;;;;;5097920;28;20515;-68
2022/05/31 04:11:39;;;;;;;15.35;9.63;;;;;;;;;;5094049;28;20039;-67
2022/05/31 04:14:05;;;;;;;18.42;9.48;;;;;;;;;;5086500;28;20039;-68
2022/05/31 04:16:31;;;;;;;15.32;10.25;;;;;;;;;;5088127;28;20036;-66
2022/05/31 04:18:57;;;;;;;12.55;9.55;;;;;;;;;;5087139;28;20423;-67
2022/05/31 04:21:23;;;;;;;13.65;9.60;;;;;;;;;;5089826;28;20052;-68
2022/05/31 04:23:58;;;;;;;17.30;9.50;;;;;;;;;;5086826;28;20040;-67
2022/05/31 04:26:29;;;;;;;13.10;9.77;;;;;;;;;;5088646;28;20092;-67
2022/05/31 04:28:55;;;;;;;19.92;10.43;;;;;;;;;;5087532;28;20035;-68
2022/05/31 04:31:22;;;;;;;15.60;9.98;;;;;;;;;;5088749;28;20016;-67
2022/05/31 04:33:48;;;;;;;14.40;9.93;;;;;;;;;;5085804;28;20054;-67
2022/05/31 04:36:15;;;;;;;14.07;9.07;;;;;;;;;;5089329;28;20081;-67
2022/05/31 04:38:41;;;;;;;11.90;9.02;;;;;;;;;;5086645;28;20289;-67
2022/05/31 04:41:08;;;;;;;18.10;9.32;;;;;;;;;;5084216;28;20028;-67
2022/05/31 04:43:34;;;;;;;18.23;8.95;;;;;;;;;;5087072;28;20098;-67
2022/05/31 04:46:32;;;;;;;13.15;8.90;;;;;;;;;;5097468;28;20020;-67
2022/05/31 04:48:59;;;;;;;12.50;8.80;;;;;;;;;;5054676;28;20405;-67
2022/05/31 04:51:25;;;;;;;16.25;9.05;;;;;;;;;;5084622;28;20032;-67
2022/05/31 04:53:51;;;;;;;14.32;9.15;;;;;;;;;;5083601;28;20083;-67
2022/05/31 04:56:19;;;;;;;13.18;8.70;;;;;;;;;;5086454;28;20039;-68
2022/05/31 04:58:45;;;;;;;15.57;9.02;;;;;;;;;;5082839;28;20031;-68
2022/05/31 05:01:11;;;;;;;12.07;8.20;;;;;;;;;;5085629;28;20046;-67
2022/05/31 05:03:37;;;;;;;11.63;8.25;;;;;;;;;;5085032;28;20028;-66
2022/05/31 05:06:05;;;;;;;11.25;8.13;;;;;;;;;;5076469;28;20025;-66
2022/05/31 05:08:32;;;;;;;16.13;8.55;;;;;;;;;;5082830;28;20497;-67
2022/05/31 05:11:01;;;;;;;11.82;8.48;;;;;;;;;;5086662;28;20059;-68
2022/05/31 05:13:28;;;;;;;15.35;8.27;;;;;;;;;;5083751;28;20032;-66
2022/05/31 05:15:55;;;;;;;14.73;8.38;;;;;;;;;;5087624;28;20442;-66
2022/05/31 05:18:21;;;;;;;12.40;7.95;;;;;;;;;;5078791;28;20501;-67
2022/05/31 05:20:47;;;;;;;16.30;8.00;;;;;;;;;;5085870;28;20032;-67
2022/05/31 05:23:13;;;;;;;28.40;10.30;;;;;;;;;;5086394;28;20024;-67
2022/05/31 05:25:39;;;;;;;12.18;7.85;;;;;;;;;;5102779;28;20084;-67
2022/05/31 05:30:52;;;;;;;11.98;7.00;;;;;;;;;;5070490;28;20036;-67
2022/05/31 05:33:19;;;;;;;13.90;8.25;;;;;;;;;;5078437;28;20489;-67
2022/05/31 05:35:45;;;;;;;13.38;6.70;;;;;;;;;;5089710;28;20036;-66
2022/05/31 05:38:11;;;;;;;9.40;6.35;;;;;;;;;;5087914;28;20201;-66
2022/05/31 05:40:37;;;;;;;11.30;6.70;;;;;;;;;;5089672;28;20028;-66
2022/05/31 05:43:05;;;;;;;11.57;6.43;;;;;;;;;;5078748;28;20024;-66
2022/05/31 05:45:32;;;;;;;13.63;6.72;;;;;;;;;;5078527;28;20024;-67
2022/05/31 05:47:58;;;;;;;13.88;9.88;;;;;;;;;;5082741;28;20020;-67
2022/05/31 05:50:24;;;;;;;11.52;8.23;;;;;;;;;;5081903;28;20451;-67
2022/05/31 05:52:53;;;;;;;17.88;11.80;;;;;;;;;;5082098;28;20500;-67
2022/05/31 05:55:19;;;;;;;14.77;10.52;;;;;;;;;;5084383;28;20035;-67
2022/05/31 05:57:45;;;;;;;19.40;6.88;;;;;;;;;;5084940;28;20077;-67
2022/05/31 06:00:12;;;;;;;11.13;5.93;;;;;;;;;;5085220;28;20150;-67
2022/05/31 06:02:41;;;;;;;9.93;6.00;;;;;;;;;;5082915;28;20025;-67
2022/05/31 06:05:09;;;;;;;7.57;5.80;;;;;;;;;;5083966;28;20052;-66
2022/05/31 06:07:37;;;;;;;9.90;6.53;;;;;;;;;;5080008;28;20039;-67
2022/05/31 06:10:07;;;;;;;13.50;10.32;;;;;;;;;;5085719;28;20135;-67
2022/05/31 06:12:35;;;;;;;12.57;7.75;;;;;;;;;;5084988;28;20031;-67
2022/05/31 06:15:05;;;;;;;9.63;6.43;;;;;;;;;;5082594;28;20025;-67
2022/05/31 06:17:36;;;;;;;10.70;6.45;;;;;;;;;;5088715;28;20036;-66
2022/05/31 06:20:04;;;;;;;9.00;6.35;;;;;;;;;;5081267;28;20027;-67
2022/05/31 06:22:30;;;;;;;9.98;6.60;;;;;;;;;;5073099;28;20089;-67
2022/05/31 06:24:58;;;;;;;13.25;6.90;;;;;;;;;;5072168;28;20021;-67
2022/05/31 06:27:24;;;;;;;8.35;5.90;;;;;;;;;;5072576;28;20150;-67
2022/05/31 06:29:50;;;;;;;16.25;7.00;;;;;;;;;;5072222;28;20028;-68
2022/05/31 06:32:16;;;;;;;8.65;6.07;;;;;;;;;;5077369;28;20592;-66
2022/05/31 06:34:42;;;;;;;12.23;5.93;;;;;;;;;;5088761;28;20050;-65
2022/05/31 06:37:10;;;;;;;9.70;6.07;;;;;;;;;;5091834;28;20048;-68
2022/05/31 06:39:37;;;;;;;18.67;6.07;;;;;;;;;;5091276;28;20115;-65
2022/05/31 06:42:04;;;;;;;11.60;6.32;;;;;;;;;;5072974;28;20032;-67
2022/05/31 06:44:37;;;;;;;16.05;5.82;;;;;;;;;;5072850;28;20036;-67
2022/05/31 06:47:03;;;;;;;10.35;5.53;;;;;;;;;;5075716;28;20020;-67
2022/05/31 06:49:30;;;;;;;10.70;5.53;;;;;;;;;;5077280;28;20034;-67
2022/05/31 06:57:30;;;;;;;11.95;5.38;;;;;;;;;;5089987;28;20405;-67
2022/05/31 06:59:57;;;;;;;8.23;4.47;;;;;;;;;;5074823;28;20031;-67
2022/05/31 07:02:23;;;;;;;9.55;4.55;;;;;;;;;;5095594;28;20050;-67
2022/05/31 07:04:49;;;;;;;8.07;4.20;;;;;;;;;;5091609;28;20150;-67
2022/05/31 07:07:15;;;;;;;10.25;4.78;;;;;;;;;;5090750;28;20095;-67
2022/05/31 07:09:41;;;;;;;9.57;4.47;;;;;;;;;;5091507;28;20477;-67
2022/05/31 07:12:07;;;;;;;9.07;4.57;;;;;;;;;;5073705;28;20029;-66
2022/05/31 07:14:33;;;;;;;10.90;5.20;;;;;;;;;;5091487;28;20039;-67
2022/05/31 07:16:59;;;;;;;9.25;4.38;;;;;;;;;;5088670;28;20268;-67
2022/05/31 07:19:25;;;;;;;9.00;4.05;;;;;;;;;;5087497;28;20138;-67
2022/05/31 07:21:51;;;;;;;10.15;4.18;;;;;;;;;;5085224;28;20059;-67
2022/05/31 07:24:17;;;;;;;7.68;3.72;;;;;;;;;;5085383;28;20107;-67
2022/05/31 07:26:43;;;;;;;8.98;3.60;;;;;;;;;;5086379;28;20126;-67
2022/05/31 07:29:09;;;;;;;10.27;4.25;;;;;;;;;;5090510;28;20078;-67
2022/05/31 07:31:36;;;;;;;8.77;4.00;;;;;;;;;;5083924;28;20043;-67
2022/05/31 07:34:02;;;;;;;10.93;3.55;;;;;;;;;;5087564;28;20539;-67
2022/05/31 07:36:28;;;;;;;7.68;4.57;;;;;;;;;;5081003;28;20490;-67
2022/05/31 07:38:54;;;;;;;6.70;3.85;;;;;;;;;;5082911;28;20516;-67
2022/05/31 07:41:20;;;;;;;10.23;4.30;;;;;;;;;;5092060;28;20079;-67
2022/05/31 07:43:46;;;;;;;11.07;4.00;;;;;;;;;;5085975;28;20032;-65
2022/05/31 07:46:13;;;;;;;12.60;4.30;;;;;;;;;;5089746;28;20111;-67
2022/05/31 07:48:40;;;;;;;8.10;4.05;;;;;;;;;;5088983;28;20094;-67
2022/05/31 07:51:06;;;;;;;6.28;3.72;;;;;;;;;;5087644;28;20106;-66
2022/05/31 07:53:33;;;;;;;13.32;3.70;;;;;;;;;;5082821;28;20600;-67
2022/05/31 07:56:09;;;;;;;10.15;3.97;;;;;;;;;;5086334;28;20119;-67
2022/05/31 07:58:39;;;;;;;11.68;4.53;;;;;;;;;;5086197;28;20044;-67
2022/05/31 08:01:07;;;;;;;8.52;4.43;;;;;;;;;;5082945;28;20104;-67
2022/05/31 08:03:34;;;;;;;9.35;5.20;;;;;;;;;;5087800;28;20016;-67
2022/05/31 08:06:04;;;;;;;12.73;6.18;;;;;;;;;;5084569;28;20029;-68
2022/05/31 08:08:30;;;;;;;11.40;6.07;;;;;;;;;;5081779;28;20089;-68
2022/05/31 08:10:56;;;;;;;11.10;6.65;;;;;;;;;;5085477;28;20275;-67
2022/05/31 08:13:22;;;;;;;12.52;6.45;;;;;;;;;;5086208;28;20517;-67
2022/05/31 08:15:48;;;;;;;10.70;5.88;;;;;;;;;;5087255;28;20124;-67
2022/05/31 08:18:14;;;;;;;13.27;7.10;;;;;;;;;;5085294;28;20036;-68
2022/05/31 08:20:40;;;;;;;11.55;7.15;;;;;;;;;;5085239;28;20040;-68
2022/05/31 08:23:06;;;;;;;10.20;5.85;;;;;;;;;;5083810;28;20401;-69
2022/05/31 08:25:34;;;;;;;10.07;6.30;;;;;;;;;;5086678;28;20028;-67
2022/05/31 08:28:01;;;;;;;11.45;6.35;;;;;;;;;;5085721;28;20035;-67
2022/05/31 08:30:27;;;;;;;11.80;5.25;;;;;;;;;;5091083;28;20106;-67
2022/05/31 08:32:53;;;;;;;9.65;4.97;;;;;;;;;;5089517;28;20426;-67
2022/05/31 08:35:19;;;;;;;10.73;6.55;;;;;;;;;;5086095;28;20044;-67
2022/05/31 08:37:45;;;;;;;12.98;7.57;;;;;;;;;;5085135;28;20036;-67
2022/05/31 08:40:12;;;;;;;13.27;8.85;;;;;;;;;;5086608;28;20100;-68
2022/05/31 08:42:53;;;;;;;14.70;8.20;;;;;;;;;;5081165;27;20821;-66
2022/05/31 08:45:25;;;;;;;12.88;7.60;;;;;;;;;;5075134;28;20027;-68
2022/05/31 08:47:58;;;;;;;11.57;6.70;;;;;;;;;;5074486;28;20520;-67
2022/05/31 08:53:31;;;;;;;14.38;9.75;;;;;;;;;;5078012;28;20031;-67
2022/05/31 08:58:47;;;;;;;11.10;8.07;;;;;;;;;;5068510;28;20102;-67
2022/05/31 09:01:16;;;;;;;12.68;8.10;;;;;;;;;;5062360;28;20056;-68
2022/05/31 09:03:42;;;;;;;14.73;8.18;;;;;;;;;;5075419;28;20058;-68
2022/05/31 09:06:09;;;;;;;19.25;7.97;;;;;;;;;;5076913;28;20076;-68
2022/05/31 09:08:56;;;;;;;14.35;7.93;;;;;;;;;;5072416;28;20072;-67
2022/05/31 09:11:24;;;;;;;14.30;10.15;;;;;;;;;;5065644;28;20053;-69
2022/05/31 09:13:57;;;;;;;17.15;8.95;;;;;;;;;;5077702;28;20077;-68
2022/05/31 09:16:33;;;;;;;18.77;8.80;;;;;;;;;;5075183;28;20771;-68
2022/05/31 09:19:04;;;;;;;14.10;8.65;;;;;;;;;;5067972;28;20033;-67
2022/05/31 09:21:37;;;;;;;10.60;8.40;;;;;;;;;;5072720;28;20025;-66
2022/05/31 09:24:04;;;;;;;16.20;9.63;;;;;;;;;;5076259;28;20033;-68
2022/05/31 09:26:30;;;;;;;15.27;9.43;;;;;;;;;;5071258;28;20036;-68
2022/05/31 09:29:08;;;;;;;13.35;9.07;;;;;;;;;;5064208;28;20485;-68
2022/05/31 09:31:41;;;;;;;13.02;8.68;;;;;;;;;;5061736;28;20024;-67
2022/05/31 09:34:39;;;;;;;12.95;7.55;;;;;;;;;;5051899;28;20029;-68
2022/05/31 09:37:28;;;;;;;12.32;6.53;;;;;;;;;;5020106;28;20041;-66
2022/05/31 09:40:13;;;;;;;18.50;6.18;;;;;;;;;;5035112;28;20462;-66
2022/05/31 09:42:42;;;;;;;10.25;6.20;;;;;;;;;;5044668;28;20521;-66
2022/05/31 09:45:16;;;;;;;13.07;5.75;;;;;;;;;;5045347;28;20025;-67
2022/05/31 09:47:42;;;;;;;16.23;6.47;;;;;;;;;;5052190;28;20025;-67
2022/05/31 09:50:08;;;;;;;10.35;5.95;;;;;;;;;;5044340;28;20033;-67
2022/05/31 09:52:37;;;;;;;11.63;6.78;;;;;;;;;;5050175;28;20041;-68
2022/05/31 09:57:55;;;;;;;10.18;6.75;;;;;;;;;;5037233;28;20124;-67
2022/05/31 10:00:22;;;;;;;12.07;7.20;;;;;;;;;;5038080;28;20037;-68
2022/05/31 10:03:04;;;;;;;12.70;7.50;;;;;;;;;;5012169;28;20033;-67
2022/05/31 10:05:30;;;;;;;13.52;7.53;;;;;;;;;;5029130;28;20040;-67
2022/05/31 10:07:57;;;;;;;13.63;7.20;;;;;;;;;;5037177;28;20021;-66
2022/05/31 10:10:27;;;;;;;14.95;7.53;;;;;;;;;;5043806;28;20036;-67
2022/05/31 10:12:58;;;;;;;14.25;8.15;;;;;;;;;;5031871;28;20102;-67
2022/05/31 10:15:25;;;;;;;;;;;;;;;;;;5032385;28;20033;-67
2022/05/31 10:18:00;;;;;;;14.30;7.03;;;;;;;;;;5035885;28;19915;-66
2022/05/31 10:20:27;;;;;;;13.55;6.88;;;;;;;;;;5038693;28;20118;-66
2022/05/31 10:22:53;;;;;;;11.07;7.10;;;;;;;;;;5033533;28;20024;-67
2022/05/31 10:25:23;;;;;;;12.73;6.55;;;;;;;;;;5032595;28;20025;-66
2022/05/31 10:27:55;;;;;;;9.75;6.07;;;;;;;;;;5036153;28;20039;-67
2022/05/31 10:30:23;;;;;;;10.98;6.65;;;;;;;;;;5030555;28;20030;-67
2022/05/31 10:32:54;;;;;;;10.55;5.90;;;;;;;;;;5040094;28;20027;-66
2022/05/31 10:35:38;;;;;;;9.35;5.60;;;;;;;;;;5035212;28;20138;-66
2022/05/31 10:38:04;;;;;;;10.43;6.25;;;;;;;;;;5032233;28;20021;-65
2022/05/31 10:40:34;;;;;;;8.68;6.15;;;;;;;;;;5033568;28;20196;-65
2022/05/31 10:43:07;;;;;;;42.40;14.43;;;;;;;;;;5027692;28;20033;-65
2022/05/31 10:45:33;;;;;;;13.05;6.75;;;;;;;;;;5021422;28;20022;-66
2022/05/31 10:47:59;;;;;;;11.32;7.15;;;;;;;;;;5026283;28;20044;-66
2022/05/31 10:50:33;;;;;;;13.38;6.22;;;;;;;;;;5029312;28;20505;-66
2022/05/31 10:53:14;;;;;;;10.63;6.43;;;;;;;;;;5029760;28;20026;-66
2022/05/31 10:55:47;;;;;;;14.57;8.27;;;;;;;;;;5029694;28;20511;-65
2022/05/31 10:58:33;;;;;;;12.52;8.50;;;;;;;;;;5030256;28;20052;-66
2022/05/31 11:01:11;;;;;;;11.82;8.23;;;;;;;;;;5033728;28;20347;-67
2022/05/31 11:03:42;;;;;;;15.00;7.70;;;;;;;;;;5026764;28;20037;-67
2022/05/31 11:06:08;;;;;;;10.60;7.82;;;;;;;;;;5032237;28;20475;-66
2022/05/31 11:11:49;;;;;;;10.43;6.55;;;;;;;;;;5033204;28;20446;-67
2022/05/31 11:14:15;;;;;;;7.68;6.00;;;;;;;;;;5027196;28;20037;-67
2022/05/31 11:16:53;;;;;;;197.43;13.85;;;;;;;;;;5036268;28;20036;-67
2022/05/31 11:19:19;;;;;;;9.30;6.28;;;;;;;;;;5015349;28;20025;-67
2022/05/31 11:22:02;;;;;;;9.77;6.43;;;;;;;;;;5037482;28;20033;-66
2022/05/31 11:24:31;;;;;;;9.68;5.70;;;;;;;;;;5027453;28;20107;-66
2022/05/31 11:27:12;;;;;;;14.23;6.35;;;;;;;;;;5028675;28;20502;-66
2022/05/31 11:29:57;;;;;;;9.57;5.55;;;;;;;;;;5032708;28;20032;-66
2022/05/31 11:32:34;;;;;;;9.93;3.30;;;;;;;;;;5028095;28;20124;-67
2022/05/31 11:35:00;;;;;;;11.82;4.00;;;;;;;;;;5027318;28;20033;-66
2022/05/31 11:37:35;;;;;;;10.20;4.85;;;;;;;;;;5029404;28;20129;-66
2022/05/31 11:40:13;;;;;;;7.53;4.05;;;;;;;;;;5026698;28;20029;-66
2022/05/31 11:42:44;;;;;;;9.52;4.72;;;;;;;;;;5026911;28;20060;-66
2022/05/31 11:45:17;;;;;;;9.73;6.10;;;;;;;;;;5026132;28;20040;-68
2022/05/31 11:47:55;;;;;;;13.05;6.82;;;;;;;;;;5023839;28;20140;-66
2022/05/31 11:50:27;;;;;;;18.42;7.25;;;;;;;;;;5027526;28;20467;-66
2022/05/31 11:53:04;;;;;;;11.20;6.90;;;;;;;;;;5026646;28;20459;-67
2022/05/31 11:55:42;;;;;;;17.35;7.72;;;;;;;;;;5023425;28;20095;-65
2022/05/31 11:58:15;;;;;;;11.50;7.50;;;;;;;;;;5028759;28;20080;-67
2022/05/31 12:01:04;;;;;;;15.10;7.80;;;;;;;;;;5026878;28;20459;-67
2022/05/31 12:03:39;;;;;;;15.43;7.78;;;;;;;;;;5024849;28;20044;-67
2022/05/31 12:06:26;;;;;;;18.58;7.38;;;;;;;;;;5029063;28;20410;-68
2022/05/31 12:08:54;;;;;;;16.90;6.97;;;;;;;;;;5028308;28;20171;-67
2022/05/31 12:11:23;;;;;;;13.75;6.75;;;;;;;;;;5029402;28;20037;-67
2022/05/31 12:13:50;;;;;;;17.23;6.32;;;;;;;;;;5027735;28;20029;-66
2022/05/31 12:16:16;;;;;;;13.15;6.47;;;;;;;;;;4997749;28;20069;-65
2022/05/31 12:18:57;;;;;;;13.43;6.35;;;;;;;;;;5009952;28;20064;-66
2022/05/31 12:21:23;;;;;;;;;;;;;;;;;;5024649;28;20164;-66
2022/05/31 12:23:52;;;;;;;10.45;6.78;;;;;;;;;;5025578;28;20309;-66
2022/05/31 12:26:41;;;;;;;17.48;6.40;;;;;;;;;;5028571;28;20037;-66
2022/05/31 12:29:06;;;;;;;18.85;6.07;;;;;;;;;;5034983;28;20041;-65
2022/05/31 12:31:34;;;;;;;11.43;6.35;;;;;;;;;;5037277;28;20037;-65
2022/05/31 12:34:19;;;;;;;14.75;6.95;;;;;;;;;;5012608;28;20034;-65
2022/05/31 12:36:57;;;;;;;27.02;6.75;;;;;;;;;;5029453;28;20053;-65
2022/05/31 12:39:28;;;;;;;11.95;7.72;;;;;;;;;;5030232;28;20486;-66
2022/05/31 12:41:54;;;;;;;14.23;6.88;;;;;;;;;;5032067;28;20037;-66
2022/05/31 12:44:31;;;;;;;11.60;6.47;;;;;;;;;;5025792;28;20112;-67
2022/05/31 12:47:23;;;;;;;13.27;5.75;;;;;;;;;;5029725;28;20187;-67
2022/05/31 12:49:56;;;;;;;13.02;6.00;;;;;;;;;;5027903;28;20113;-65
2022/05/31 12:54:53;;;;;;;11.07;5.13;;;;;;;;;;5038681;28;20033;-65
2022/05/31 13:00:27;;;;;;;8.85;5.30;;;;;;;;;;5024704;28;20043;-66
2022/05/31 13:02:54;;;;;;;14.95;5.60;;;;;;;;;;5023797;28;20032;-68
2022/05/31 13:05:37;;;;;;;10.00;5.35;;;;;;;;;;5026421;28;20025;-66
2022/05/31 13:08:14;;;;;;;11.73;5.57;;;;;;;;;;5026646;28;20034;-67
2022/05/31 13:19:34;;;;;;;13.38;5.30;;;;;;;;;;5017437;28;20552;-65
2022/05/31 13:21:53;;;;;;;11.55;6.93;;;;;;;;;;5023233;28;20045;-68
2022/05/31 13:24:21;;;;;;;15.00;8.40;;;;;;;;;;5026450;28;20526;-68
2022/05/31 13:26:49;;;;;;;16.92;8.82;;;;;;;;;;5027333;28;20029;-68
2022/05/31 13:29:20;;;;;;;23.75;13.48;;;;;;;;;;5028069;28;20032;-67
2022/05/31 13:31:57;;;;;;;22.70;14.63;;;;;;;;;;5009631;28;20097;-68
2022/05/31 13:34:32;;;;;;;20.38;13.40;;;;;;;;;;5025051;28;20072;-68
2022/05/31 13:36:59;;;;;;;19.67;14.00;;;;;;;;;;5030853;28;20061;-68
2022/05/31 13:39:26;;;;;;;26.92;15.93;;;;;;;;;;5029551;28;20040;-67
2022/05/31 13:41:54;;;;;;;24.65;14.80;;;;;;;;;;5029325;28;20080;-68
2022/05/31 13:44:21;;;;;;;22.08;14.10;;;;;;;;;;5031488;28;20029;-67
2022/05/31 13:46:48;;;;;;;23.02;12.65;;;;;;;;;;5031650;28;20040;-67
2022/05/31 13:49:20;;;;;;;18.88;14.90;;;;;;;;;;5030346;28;20033;-68
2022/05/31 13:51:53;;;;;;;27.77;18.15;;;;;;;;;;5018222;28;20108;-69
2022/05/31 13:54:21;;;;;;;28.65;19.00;;;;;;;;;;5030081;28;20036;-68
2022/05/31 13:56:49;;;;;;;18.77;13.23;;;;;;;;;;5030102;28;20549;-68
2022/05/31 13:59:29;;;;;;;24.45;14.40;;;;;;;;;;5026954;28;20127;-69
2022/05/31 14:01:55;;;;;;;22.55;15.57;;;;;;;;;;5007294;28;20052;-68
2022/05/31 14:04:23;;;;;;;24.55;16.10;;;;;;;;;;5009543;28;20038;-69
2022/05/31 14:06:50;;;;;;;30.48;18.20;;;;;;;;;;5033969;28;20351;-68
2022/05/31 14:09:30;;;;;;;25.33;18.55;;;;;;;;;;5011250;28;20028;-68
2022/05/31 14:12:00;;;;;;;30.50;18.40;;;;;;;;;;5029494;28;20139;-69
2022/05/31 14:14:47;;;;;;;28.88;17.38;;;;;;;;;;5023617;28;20077;-69
2022/05/31 14:17:14;;;;;;;23.95;17.80;;;;;;;;;;5028385;28;20159;-68
2022/05/31 14:19:45;;;;;;;28.50;19.10;;;;;;;;;;5029520;28;20025;-68
2022/05/31 14:22:11;;;;;;;;;;;;;;;;;;5021955;28;20030;-69
2022/05/31 14:24:38;;;;;;;23.85;18.98;;;;;;;;;;5025765;28;19920;-68
2022/05/31 14:27:04;;;;;;;26.92;19.38;;;;;;;;;;5028379;28;20439;-69
2022/05/31 14:29:35;;;;;;;48.25;23.50;;;;;;;;;;5026406;28;20026;-68
2022/05/31 14:32:04;;;;;;;47.70;33.20;;;;;;;;;;5026916;28;20116;-67
2022/05/31 14:34:49;;;;;;;36.38;25.83;;;;;;;;;;5025455;28;20025;-68
2022/05/31 14:37:26;;;;;;;33.25;24.70;;;;;;;;;;5028651;28;20459;-69
2022/05/31 14:39:56;;;;;;;29.88;22.92;;;;;;;;;;5007214;28;20144;-68
2022/05/31 14:42:23;;;;;;;31.70;23.92;;;;;;;;;;5025926;28;20498;-68
2022/05/31 14:44:50;;;;;;;28.63;20.92;;;;;;;;;;5024383;28;20052;-68
2022/05/31 14:47:23;;;;;;;31.42;21.35;;;;;;;;;;5029541;28;20029;-68
2022/05/31 14:49:51;;;;;;;33.58;21.45;;;;;;;;;;5025819;28;20037;-68
2022/05/31 14:52:32;;;;;;;24.88;16.80;;;;;;;;;;5011950;28;20034;-67
2022/05/31 14:55:07;;;;;;;48.65;33.38;;;;;;;;;;5026585;28;20033;-67
2022/05/31 15:00:18;;;;;;;30.45;22.25;;;;;;;;;;5011832;28;20065;-68
2022/05/31 15:02:44;;;;;;;28.90;18.13;;;;;;;;;;5025238;28;20080;-68
2022/05/31 15:05:10;;;;;;;31.70;22.92;;;;;;;;;;5016716;28;20029;-70
2022/05/31 15:07:51;;;;;;;20.02;14.43;;;;;;;;;;5039426;28;20071;-69
2022/05/31 15:10:26;;;;;;;19.52;16.85;;;;;;;;;;5034798;28;20037;-68
2022/05/31 15:21:11;;;;;;;43.10;29.83;;;;;;;;;;5036098;28;20039;-67
2022/05/31 15:23:37;;;;;;;19.02;14.48;;;;;;;;;;5024500;28;20037;-65
2022/05/31 15:26:05;;;;;;;40.67;29.52;;;;;;;;;;5011380;28;20060;-68